NCAR-RAP Real-Time Weather Data

Output produced by METARs form (23 June 2018  15:26 UTC)
found at http://weather.rap.ucar.edu/surface/
 
RJFG 230926Z 25006KT 0500 R31/P1800N -SHRA FG FEW001 SCT002 BKN003 24/24 Q1006 RMK 1ST001 3ST002 5ST003 A2972
RJFG 230922Z 25007KT 200V280 1000 R31/P1800N -TSRA BR FEW001 SCT003 BKN015 FEW020CB 24/24 Q1006 RMK 1ST001 3ST003 5CU015 1CB020 A2972 FBL TS 25KM SE MOV NE
RJFG 230900Z 21007KT 170V290 3000 -TSRA BR FEW001 SCT010 FEW020CB BKN025 24/23 Q1006
RJFG 230837Z 16006KT 130V210 1500 R31/P1800N -TSRA BR FEW001 SCT015 FEW020CB BKN030 23/23 Q1006 RMK 1ST001 3CU015 1CB020 5SC030 A2972 FBL TS 30KM SW MOV NE
RJFG 230805Z 17004KT 140V200 1500 R31/P1800N -SHRA BR FEW001 SCT010 BKN030 23/22 Q1006 RMK 1ST001 3CU010 5CU030 A2971
RJFG 230800Z 16005KT 140V200 1000 R31/P1800N TSRA BR FEW001 SCT015 FEW020CB BKN035 23/22 Q1006
RJFG 230732Z 21004KT 150V260 3000 TSRA BR FEW001 SCT010 BKN015 FEW020CB 23/22 Q1006 RMK 1ST001 3CU010 5CU015 1CB020 A2973 MOD TS 10KM SW MOV NE
RJFG 230718Z VRB02KT 1000 R31/0400VP1800D +TSRA BR FEW001 SCT010 BKN015 FEW020CB 23/22 Q1006 RMK 1ST001 3CU010 5CU015 1CB020 A2973 MOD TS 10KM W MOV NE RI++
RJFG 230709Z VRB01KT 2000 R31/0800VP1800D TSRA BR FEW004 SCT015 FEW020CB BKN030 22/21 Q1007 RMK 1ST004 3CU015 1CB020 5CU030 A2974 MOD TS 10KM W MOV NE
RJFG 230700Z 00000KT 3000 R31/1100VP1800D +SHRA PRFG BR FEW004 SCT015 BKN030 22/21 Q1006
RJFG 230634Z VRB02KT 2000 SHRA BR FEW001 SCT015 BKN030 22/22 Q1007 RMK 1ST001 3CU015 5CU030 A2974
RJFG 230624Z 18003KT 140V230 4000 -TSRA BR FEW005 FEW020CB SCT040 BKN050 22/22 Q1006 RMK 1ST005 1CB020 4SC040 6SC050 A2973 FBL TS 30KM W MOV NE
RJFG 230600Z VRB02KT 9999 -RA FEW005 SCT040 BKN050 22/21 Q1007
RJFG 230500Z 25007KT 8000 -RA FEW003 SCT030 BKN050 22/22 Q1007
RJFG 230400Z 26008KT 8000 -RA FEW003 SCT030 BKN040 22/22 Q1007
RJFG 230334Z 26009KT 2000 -SHRA BR FEW001 SCT002 BKN007 22/22 Q1007 RMK 1ST001 3ST002 5ST007 A2976
RJFG 230300Z 27010KT 1000 R31/1200VP1800U BR FEW001 SCT002 BKN005 22/22 Q1007
RJFG 230200Z 27009KT 1000 R31/P1800N -SHRA BR FEW001 SCT002 BKN004 21/21 Q1007
RJFG 230141Z 28012KT 1000 R31/P1800N -SHRA BR FEW001 SCT002 BKN005 21/20 Q1007 RMK 1ST001 3ST002 5ST005 A2976
RJFG 230127Z 30016KT 0500 R31/1800D TSRA FG FEW001 SCT002 BKN003 FEW020CB 21/20 Q1007 RMK 1ST001 3ST002 5ST003 1CB020 A2976 FBL TS 30KM SW MOV NE
RJFG 230117Z 30017G31KT 1500 R31/0550VP1800U SHRA BR FEW002 SCT003 BKN005 21/21 Q1007 RMK 1ST002 3ST003 5ST005 A2976
RJFG 230107Z 30019KT 0300 R31/0700VP1800D -SHRA FG FEW000 SCT001 BKN002 21/21 Q1007 RMK 1ST000 3ST001 5ST002 A2976
RJFG 230100Z 30020KT 0800 R31/1400VP1800D -SHRA FG FEW001 SCT002 BKN003 21/21 Q1007
RJFG 230044Z 30023KT 5000 -SHRA BR FEW003 SCT005 BKN007 22/21 Q1008 RMK 1ST003 3ST005 5CU007 A2977
RJFG 230018Z 23011G21KT 190V280 0800 R31/P1800N -SHRA FG FEW001 SCT002 BKN003 25/24 Q1006 RMK 1ST001 3ST002 5ST003 A2973
RJFG 230000Z 22011G21KT 170V270 8000 -SHRA FEW003 SCT030 BKN050 25/24 Q1006
RJFG 222330Z 22010KT 170V260 5000 BR FEW001 SCT004 BKN007 25/25 Q1006
RJFG 222322Z 22011KT 180V270 5000 BR FEW001 SCT002 BKN007 25/25 Q1006 RMK 1ST001 3ST002 5ST007 A2972
RJFG 222310Z 22010G20KT 180V280 2000 -SHRA PRFG BR FEW001 SCT002 BKN005 25/24 Q1006 RMK 1ST001 3ST002 5ST005 A2972 FG NW
RJFG 220925Z 09005KT 040V130 1000 R31/0600VP1800D SHRA PRFG BR FEW001 SCT002 BKN003 21/21 Q1008 RMK 1ST001 3ST002 5ST003 A2978 FG SE
RJFG 220900Z 08004KT 040V130 3000 -SHRA PRFG BR FEW001 SCT002 BKN025 21/21 Q1008
RJFG 220800Z 08005KT 040V130 2000 -SHRA PRFG BR FEW001 SCT003 BKN005 21/20 Q1008
RJFG 220720Z VRB03KT 3000 -SHRA BR FEW001 SCT004 BKN020 21/20 Q1009 RMK 1ST001 3ST004 5CU020 A2980
RJFG 220700Z 06004KT 360V110 2000 SHRA PRFG BR FEW001 SCT002 BKN005 21/21 Q1009
RJFG 220629Z 05006KT 010V100 2000 SHRA PRFG BR FEW001 SCT002 BKN003 21/21 Q1008 RMK 1ST001 3ST002 5ST003 A2979 FG SE
RJFG 220616Z 06004KT 350V120 1500 R31/0800V1700U SHRA PRFG BR FEW001 SCT002 BKN004 21/21 Q1009 RMK 1ST001 3ST002 5ST004 A2980 FG SE
RJFG 220612Z 06004KT 350V120 1000 R31/0750V1200U SHRA PRFG BR FEW001 SCT002 BKN003 21/21 Q1009 RMK 1ST001 3ST002 5ST003 A2980 FG SE
RJFG 220606Z 07004KT 020V110 0800 R31/0750VP1800D SHRA FG FEW000 SCT001 BKN002 21/21 Q1009 RMK 1ST000 3ST001 5ST002 A2980
RJFG 220600Z 06004KT 340V110 1000 R31/P1800N -SHRA PRFG BR FEW000 SCT001 BKN002 21/21 Q1008
RJFG 220536Z 05004KT 350V100 4000 R31/1600VP1800U SHRA PRFG BR FEW001 SCT003 BKN005 21/21 Q1008 RMK 1ST001 3ST003 5ST005 A2979 1500SE FG SE
RJFG 220517Z 07005KT 010V120 1500 R31/1600VP1800D +SHRA BR FEW001 SCT002 BKN003 21/21 Q1009 RMK 1ST001 3ST002 5ST003 A2980
RJFG 220500Z 07004KT 010V150 3000 R31/P1800N SHRA PRFG BR FEW001 SCT003 BKN006 22/21 Q1009
RJFG 220400Z 08006KT 040V110 1500 R31/0800V1400U SHRA PRFG BR FEW001 SCT002 BKN003 22/22 Q1009
RJFG 220323Z 08006KT 050V120 0700 R31/0500V1200D -SHRA FG FEW001 SCT002 BKN003 22/22 Q1009 RMK 1ST001 3ST002 5ST003 A2981
RJFG 220300Z 08006KT 030V130 1000 R31/0500V1500U -SHRA BR FEW001 SCT002 BKN006 22/22 Q1009
RJFG 220236Z 09007KT 0500 R31/0400V1000N -SHRA FG FEW001 SCT002 BKN003 22/22 Q1009 RMK 1ST001 3ST002 5ST003 A2981
RJFG 220226Z 08006KT 040V120 1000 R31/0300V0700U -SHRA PRFG BR FEW001 SCT002 BKN003 22/21 Q1009 RMK 1ST001 3ST002 5ST003 A2980 FG SE
RJFG 220206Z 08006KT 040V130 0500 R31/0400VP1800D -SHRA FG FEW001 SCT002 BKN003 22/21 Q1009 RMK 1ST001 3ST002 5ST003 A2982
RJFG 220200Z 08006KT 040V130 1000 R31/1100VP1800D -SHRA BR FEW001 SCT003 BKN004 21/21 Q1009
RJFG 220143Z 08006KT 010V130 3000 R31/0800VP1800U -SHRA PRFG BR FEW001 SCT002 BKN006 21/21 Q1009 RMK 1ST001 3ST002 5ST006 A2981 1000SE FG SE
RJFG 220105Z 07006KT 030V110 0300 R31/0300V0550D -SHRA FG FEW000 BKN001 21/21 Q1009 RMK 1ST000 5ST001 A2980
RJFG 220100Z 07006KT 030V100 0400 R31/0350V0600D -SHRA FG FEW001 BKN002 21/21 Q1009
RJFG 220044Z 07006KT 040V110 1000 R31/0800V1400D -SHRA BR FEW001 SCT002 BKN003 21/20 Q1009 RMK 1ST001 3ST002 5ST003 A2982
RJFG 220034Z 07006KT 040V120 2000 R31/0900VP1800U SHRA PRFG BR FEW001 SCT003 BKN004 21/21 Q1009 RMK 1ST001 3ST003 5ST004 A2982 1000SE FG SE
RJFG 220017Z 07005KT 030V110 1000 R31/0650V1500D +SHRA BR FEW001 SCT005 BKN008 21/21 Q1010 RMK 1ST001 3ST005 5CU008 A2982 RI++
RJFG 220011Z 05004KT 350V110 1000 R31/1000VP1800D +SHRA BR FEW001 SCT003 BKN005 21/21 Q1010 RMK 1ST001 4ST003 5ST005 A2983 RI++
RJFG 220000Z 08005KT 030V120 4000 R31/1100VP1800U -SHRA PRFG BR FEW001 SCT003 BKN008 21/21 Q1010
RJFG 212339Z 08005KT 040V120 3000 R31/1100VP1800D SHRA PRFG BR FEW001 SCT002 BKN005 21/21 Q1010 RMK 1ST001 4ST002 5ST005 A2983 1000SE FG SE
RJFG 212330Z 08004KT 020V120 2000 R31/P1800N -SHRA PRFG BR FEW001 SCT002 BKN008 21/21 Q1010
RJFG 210920Z 00000KT 3000 -SHRA PRFG BR FEW001 SCT002 BKN050 21/20 Q1008 RMK 1ST001 3ST002 5SC050 A2979 FG SE
RJFG 210900Z VRB02KT 1000 R31/1100VP1800D -SHRA PRFG BR FEW001 SCT002 BKN003 21/20 Q1008
RJFG 210840Z VRB02KT 2000 -SHRA PRFG BR FEW001 SCT002 BKN007 21/21 Q1008 RMK 1ST001 3ST002 5ST007 A2978 FG SE
RJFG 210830Z 09002KT 2000 R31/1400VP1800U -SHRA PRFG BR FEW001 SCT002 BKN020 21/21 Q1008 RMK 1ST001 3ST002 5CU020 A2978 FG SE
RJFG 210800Z VRB01KT 1500 R31/P1800N -SHRA PRFG BR FEW001 SCT010 BKN050 21/21 Q1008
RJFG 210740Z VRB01KT 2000 R31/1100VP1800U SHRA PRFG BR FEW001 SCT004 BKN010 21/21 Q1008 RMK 1ST001 3ST004 5CU010 A2979 FG SE
RJFG 210700Z VRB02KT 4000 R31/1300VP1800D -SHRA PRFG BR FEW001 SCT003 BKN020 21/21 Q1008
RJFG 210600Z 10003KT 060V130 6000 -SHRA FEW020 SCT030 BKN050 21/20 Q1008
RJFG 210542Z VRB02KT 4000 SHRA BR FEW005 SCT030 BKN035 20/20 Q1008 RMK 1ST005 3CU030 5CU035 A2979
RJFG 210528Z VRB02KT 3000 -SHRA BR FEW002 SCT020 BKN025 20/20 Q1008 RMK 1ST002 3CU020 5CU025 A2978
RJFG 210500Z 08004KT 040V120 3000 R31/P1800N -SHRA PRFG BR FEW001 SCT002 BKN003 20/20 Q1008
RJFG 210413Z VRB02KT 2000 R31/0900VP1800U -SHRA BR FEW001 SCT002 BKN003 20/20 Q1008 RMK 1ST001 3ST002 5ST003 A2977
RJFG 210400Z 04003KT 320V120 1000 R31/0900V1500D -SHRA BR FEW001 SCT002 BKN003 20/20 Q1008
RJFG 210339Z 07004KT 040V130 3000 R31/P1800N -SHRA PRFG BR FEW001 SCT005 BKN015 20/20 Q1007 RMK 1ST001 3ST005 5CU015 A2975 1500SE FG SE